createdAt,value
2019-05-26T00:00:19.408Z,74.67
2019-05-26T00:02:49.099Z,81.97
2019-05-26T00:05:18.898Z,79.73
2019-05-26T00:07:48.502Z,80.00
2019-05-26T00:10:18.210Z,87.90
2019-05-26T00:12:47.818Z,88.43
2019-05-26T00:15:17.874Z,85.70
2019-05-26T00:17:47.487Z,90.30
2019-05-26T00:20:17.364Z,87.60
2019-05-26T00:22:46.988Z,81.53
2019-05-26T00:25:16.836Z,81.83
2019-05-26T00:27:46.468Z,85.70
2019-05-26T00:30:16.362Z,80.23
2019-05-26T00:32:45.966Z,83.83
2019-05-26T00:35:15.659Z,87.03
2019-05-26T00:37:49.778Z,94.97
2019-05-26T00:40:16.658Z,86.37
2019-05-26T00:42:46.270Z,93.73
2019-05-26T00:45:16.361Z,87.57
2019-05-26T00:47:45.966Z,85.63
2019-05-26T00:50:15.920Z,89.87
2019-05-26T00:52:45.618Z,89.27
2019-05-26T00:55:16.301Z,87.83
2019-05-26T00:57:45.937Z,86.00
2019-05-26T01:00:17.560Z,89.03
2019-05-26T01:02:47.176Z,84.43
2019-05-26T01:05:17.177Z,94.13
2019-05-26T01:07:46.854Z,81.50
2019-05-26T01:10:16.696Z,87.63
2019-05-26T01:12:46.530Z,75.30
2019-05-26T01:15:16.877Z,78.73
2019-05-26T01:17:46.497Z,87.53
2019-05-26T01:20:16.680Z,83.03
2019-05-26T01:22:46.355Z,86.20
2019-05-26T01:25:16.047Z,79.93
2019-05-26T01:27:45.681Z,78.67
2019-05-26T01:30:16.631Z,81.57
2019-05-26T01:32:46.334Z,78.00
2019-05-26T01:35:16.065Z,72.97
2019-05-26T01:37:46.351Z,73.63
2019-05-26T01:40:17.656Z,80.47
2019-05-26T01:42:47.306Z,72.17
2019-05-26T01:45:17.072Z,73.40
2019-05-26T01:47:46.708Z,68.47
2019-05-26T01:50:16.510Z,72.20
2019-05-26T01:52:46.170Z,73.10
2019-05-26T01:55:15.803Z,70.50
2019-05-26T01:57:45.417Z,69.33
2019-05-26T02:00:15.306Z,67.67
2019-05-26T02:02:44.926Z,66.10
2019-05-26T02:05:14.715Z,77.80
2019-05-26T02:07:44.342Z,73.57
2019-05-26T02:10:14.242Z,73.27
2019-05-26T02:12:43.894Z,73.20
2019-05-26T02:15:16.229Z,82.90
2019-05-26T02:17:45.926Z,76.67
2019-05-26T02:20:16.028Z,73.47
2019-05-26T02:22:45.639Z,74.90
2019-05-26T02:25:15.910Z,67.90
2019-05-26T02:27:45.542Z,73.37
2019-05-26T02:30:17.438Z,75.93
2019-05-26T02:32:47.064Z,70.87
2019-05-26T02:35:17.317Z,75.33
2019-05-26T02:37:47.019Z,68.53
2019-05-26T02:40:18.101Z,69.23
2019-05-26T02:42:47.710Z,70.27
2019-05-26T02:45:18.280Z,69.10
2019-05-26T02:47:47.965Z,63.53
2019-05-26T02:50:18.628Z,65.77
2019-05-26T02:52:48.238Z,63.40
2019-05-26T02:55:18.337Z,66.70
2019-05-26T02:57:48.014Z,59.63
2019-05-26T03:00:35.445Z,59.53
2019-05-26T03:03:05.499Z,66.90
2019-05-26T03:05:35.303Z,56.70
2019-05-26T03:08:05.892Z,58.50
2019-05-26T03:10:37.158Z,55.63
2019-05-26T03:13:06.936Z,59.83
2019-05-26T03:15:36.731Z,56.33
2019-05-26T03:18:06.949Z,55.93
2019-05-26T03:20:40.306Z,51.17
2019-05-26T03:23:10.299Z,53.70
2019-05-26T03:25:41.066Z,51.00
2019-05-26T03:28:10.743Z,50.57
2019-05-26T03:30:40.456Z,45.70
2019-05-26T03:33:10.245Z,45.70
2019-05-26T03:35:40.850Z,50.03
2019-05-26T03:38:10.538Z,50.43
2019-05-26T03:40:40.155Z,50.10
2019-05-26T03:43:09.767Z,44.43
2019-05-26T03:46:17.575Z,51.23
2019-05-26T03:48:47.533Z,47.93
2019-05-26T03:51:17.369Z,51.67
2019-05-26T03:53:47.083Z,48.10
2019-05-26T03:56:17.974Z,50.30
2019-05-26T03:58:47.614Z,46.57
2019-05-26T04:01:17.572Z,52.50
2019-05-26T04:03:47.181Z,45.87
2019-05-26T04:06:16.918Z,50.00
2019-05-26T04:08:46.598Z,45.07
2019-05-26T04:11:16.248Z,44.93
2019-05-26T04:13:45.901Z,41.57
2019-05-26T04:16:15.535Z,41.07
2019-05-26T04:18:45.156Z,42.73
2019-05-26T04:21:14.912Z,43.07
2019-05-26T04:23:44.535Z,46.50
2019-05-26T04:26:14.144Z,46.37
2019-05-26T04:28:43.743Z,45.03
2019-05-26T04:31:13.388Z,43.50
2019-05-26T04:33:43.007Z,41.67
2019-05-26T04:36:12.633Z,39.43
2019-05-26T04:38:42.239Z,40.67
2019-05-26T04:41:11.883Z,41.93
2019-05-26T04:43:41.598Z,39.03
2019-05-26T04:46:11.232Z,39.53
2019-05-26T04:48:40.902Z,38.20
2019-05-26T04:51:10.528Z,43.37
2019-05-26T04:53:40.163Z,37.93
2019-05-26T04:56:09.953Z,41.00
2019-05-26T04:58:39.559Z,42.67
2019-05-26T05:01:09.250Z,38.33
2019-05-26T05:03:38.889Z,36.93
2019-05-26T05:06:08.504Z,34.27
2019-05-26T05:08:38.139Z,34.73
2019-05-26T05:11:07.763Z,37.20
2019-05-26T05:13:37.398Z,44.70
2019-05-26T05:16:07.017Z,37.43
2019-05-26T05:18:36.639Z,35.50
2019-05-26T05:21:06.283Z,33.17
2019-05-26T05:23:35.905Z,34.13
2019-05-26T05:26:05.602Z,34.40
2019-05-26T05:28:35.210Z,37.57
2019-05-26T05:31:04.890Z,36.40
2019-05-26T05:33:34.731Z,34.77
2019-05-26T05:36:04.406Z,31.67
2019-05-26T05:38:34.014Z,29.67
2019-05-26T05:41:03.734Z,30.43
2019-05-26T05:43:33.408Z,28.77
2019-05-26T05:46:03.181Z,28.83
2019-05-26T05:48:32.886Z,37.13
2019-05-26T05:51:02.618Z,34.97
2019-05-26T05:53:32.246Z,34.77
2019-05-26T05:56:01.969Z,33.83
2019-05-26T05:58:31.715Z,28.90
2019-05-26T06:01:01.334Z,31.17
2019-05-26T06:03:30.974Z,34.03
2019-05-26T06:06:00.622Z,32.50
2019-05-26T06:08:30.262Z,30.90
2019-05-26T06:11:15.433Z,31.47
2019-05-26T06:13:32.282Z,27.47
2019-05-26T06:16:01.934Z,28.97
2019-05-26T06:18:31.643Z,31.47
2019-05-26T06:21:01.270Z,26.10
2019-05-26T06:23:30.873Z,27.00
2019-05-26T06:26:00.489Z,25.00
2019-05-26T06:28:30.154Z,26.40
2019-05-26T06:31:00.751Z,26.37
2019-05-26T06:33:30.470Z,26.33
2019-05-26T06:36:00.078Z,25.27
2019-05-26T06:38:29.689Z,23.77
2019-05-26T06:40:59.358Z,24.73
2019-05-26T06:43:29.194Z,23.40
2019-05-26T06:45:58.814Z,23.87
2019-05-26T06:48:28.644Z,31.40
2019-05-26T06:50:58.347Z,25.70
2019-05-26T06:53:28.013Z,25.57
2019-05-26T06:55:57.644Z,23.23
2019-05-26T06:58:27.268Z,27.50
2019-05-26T07:00:56.979Z,26.83
2019-05-26T07:03:26.622Z,25.03
2019-05-26T07:05:56.254Z,32.23
2019-05-26T07:08:25.871Z,22.77
2019-05-26T07:10:55.538Z,24.47
2019-05-26T07:13:25.159Z,26.80
2019-05-26T07:15:54.798Z,20.25
2019-05-26T07:18:24.802Z,29.05
2019-05-26T07:20:55.470Z,24.70
2019-05-26T07:23:25.082Z,24.70
2019-05-26T07:25:54.703Z,20.72
2019-05-26T07:28:24.427Z,20.68
2019-05-26T07:30:54.064Z,26.12
2019-05-26T07:33:23.726Z,20.50
2019-05-26T07:35:53.374Z,27.42
2019-05-26T07:38:23.006Z,21.62
2019-05-26T07:40:52.721Z,18.37
2019-05-26T07:43:22.342Z,17.45
2019-05-26T07:45:51.963Z,21.27
2019-05-26T07:48:21.579Z,22.22
2019-05-26T07:50:51.197Z,18.02
2019-05-26T07:53:20.794Z,17.42
2019-05-26T07:55:51.482Z,17.10
2019-05-26T07:58:21.171Z,20.43
2019-05-26T08:00:51.039Z,19.70
2019-05-26T08:03:20.835Z,21.50
2019-05-26T08:05:50.580Z,21.07
2019-05-26T08:08:20.210Z,21.42
2019-05-26T08:10:49.836Z,25.25
2019-05-26T08:13:19.442Z,23.00
2019-05-26T08:15:50.121Z,19.57
2019-05-26T08:18:19.757Z,19.82
2019-05-26T08:20:49.387Z,19.55
2019-05-26T08:23:19.018Z,15.75
2019-05-26T08:25:48.641Z,19.75
2019-05-26T08:28:18.284Z,18.87
2019-05-26T08:30:48.089Z,25.20
2019-05-26T08:33:18.021Z,24.87
2019-05-26T08:35:47.654Z,20.62
2019-05-26T08:38:17.299Z,20.12
2019-05-26T08:40:46.937Z,17.50
2019-05-26T08:43:16.578Z,17.92
2019-05-26T08:45:46.283Z,20.52
2019-05-26T08:48:15.921Z,16.05
2019-05-26T08:50:45.612Z,20.52
2019-05-26T08:53:15.247Z,18.23
2019-05-26T08:55:44.890Z,15.93
2019-05-26T08:58:14.551Z,14.25
2019-05-26T09:00:44.195Z,16.57
2019-05-26T09:03:13.887Z,16.77
2019-05-26T09:05:43.633Z,16.17
2019-05-26T09:08:13.299Z,19.73
2019-05-26T09:10:43.070Z,14.40
2019-05-26T09:13:12.758Z,17.07
2019-05-26T09:15:43.300Z,16.50
2019-05-26T09:18:13.023Z,14.18
2019-05-26T09:20:42.681Z,14.93
2019-05-26T09:23:12.315Z,14.98
2019-05-26T09:25:46.262Z,14.75
2019-05-26T09:28:14.343Z,22.32
2019-05-26T09:30:44.028Z,13.75
2019-05-26T09:33:13.671Z,11.78
2019-05-26T09:35:43.295Z,17.40
2019-05-26T09:38:12.934Z,17.95
2019-05-26T09:40:42.640Z,14.70
2019-05-26T09:43:16.122Z,15.28
2019-05-26T09:45:43.729Z,19.40
2019-05-26T09:48:13.335Z,22.40
2019-05-26T09:50:42.958Z,18.37
2019-05-26T09:53:12.636Z,19.17
2019-05-26T09:55:42.298Z,18.37
2019-05-26T09:58:11.998Z,19.05
2019-05-26T10:00:43.420Z,13.88
2019-05-26T10:03:13.270Z,14.45
2019-05-26T10:05:43.199Z,15.98
2019-05-26T10:08:12.895Z,18.85
2019-05-26T10:10:42.530Z,17.82
2019-05-26T10:13:12.215Z,11.93
2019-05-26T10:15:41.835Z,12.80
2019-05-26T10:18:11.456Z,14.28
2019-05-26T10:20:41.076Z,14.93
2019-05-26T10:23:10.698Z,13.75
2019-05-26T10:25:40.303Z,14.15
2019-05-26T10:28:09.941Z,13.48
2019-05-26T10:30:39.661Z,15.93
2019-05-26T10:33:09.275Z,12.95
2019-05-26T10:35:38.898Z,15.25
2019-05-26T10:38:08.545Z,14.15
2019-05-26T10:40:38.145Z,10.75
2019-05-26T10:43:07.786Z,14.07
2019-05-26T10:45:38.527Z,10.95
2019-05-26T10:48:08.164Z,19.60
2019-05-26T10:50:37.873Z,14.63
2019-05-26T10:53:07.474Z,11.03
2019-05-26T10:55:37.167Z,9.48
2019-05-26T10:58:06.984Z,14.55
2019-05-26T11:00:36.617Z,8.88
2019-05-26T11:03:06.223Z,12.45
2019-05-26T11:05:36.888Z,10.65
2019-05-26T11:08:06.610Z,12.55
2019-05-26T11:10:36.275Z,12.70
2019-05-26T11:13:06.044Z,9.60
2019-05-26T11:15:35.643Z,8.18
2019-05-26T11:18:05.461Z,12.43
2019-05-26T11:20:35.082Z,9.18
2019-05-26T11:23:04.867Z,10.70
2019-05-26T11:25:34.495Z,9.28
2019-05-26T11:28:04.275Z,16.90
2019-05-26T11:30:34.151Z,13.75
2019-05-26T11:33:03.965Z,10.05
2019-05-26T11:35:33.598Z,10.55
2019-05-26T11:38:03.283Z,12.90
2019-05-26T11:40:33.210Z,15.28
2019-05-26T11:43:15.814Z,9.28
2019-05-26T11:45:34.207Z,13.00
2019-05-26T11:48:03.965Z,10.82
2019-05-26T11:50:33.601Z,11.88
2019-05-26T11:53:03.247Z,14.50
2019-05-26T11:55:32.916Z,9.23
2019-05-26T11:58:02.731Z,17.35
2019-05-26T12:00:32.358Z,7.62
2019-05-26T12:03:02.452Z,12.80
2019-05-26T12:05:32.078Z,12.07
2019-05-26T12:08:01.674Z,15.38
2019-05-26T12:10:31.404Z,8.95
2019-05-26T12:13:01.119Z,8.10
2019-05-26T12:15:30.863Z,7.90
2019-05-26T12:18:00.479Z,6.90
2019-05-26T12:20:30.099Z,7.35
2019-05-26T12:22:59.727Z,11.22
2019-05-26T12:25:29.319Z,7.60
2019-05-26T12:27:58.922Z,10.65
2019-05-26T12:30:28.538Z,9.28
2019-05-26T12:32:58.154Z,8.58
2019-05-26T12:35:43.782Z,7.10
2019-05-26T12:38:13.739Z,4.28
2019-05-26T12:40:44.044Z,5.97
2019-05-26T12:43:13.726Z,5.67
2019-05-26T12:45:44.423Z,4.30
2019-05-26T12:48:14.114Z,6.00
2019-05-26T12:50:44.714Z,5.40
2019-05-26T12:53:14.517Z,3.02
2019-05-26T12:55:44.130Z,4.65
2019-05-26T12:58:13.838Z,3.25
2019-05-26T13:00:48.667Z,7.90
2019-05-26T13:03:14.934Z,7.08
2019-05-26T13:05:45.610Z,3.08
2019-05-26T13:08:15.255Z,4.47
2019-05-26T13:10:46.884Z,4.58
2019-05-26T13:13:16.486Z,2.30
2019-05-26T13:15:46.234Z,5.67
2019-05-26T13:18:15.874Z,6.40
2019-05-26T13:20:45.604Z,5.37
2019-05-26T13:23:15.193Z,5.58
2019-05-26T13:25:44.825Z,2.95
2019-05-26T13:28:14.639Z,8.20
2019-05-26T13:30:44.343Z,2.58
2019-05-26T13:33:13.974Z,5.62
2019-05-26T13:35:43.720Z,5.92
2019-05-26T13:38:13.319Z,8.28
2019-05-26T13:40:43.977Z,6.37
2019-05-26T13:43:13.615Z,9.98
2019-05-26T13:45:43.245Z,4.00
2019-05-26T13:48:12.948Z,11.55
2019-05-26T13:50:42.571Z,7.42
2019-05-26T13:53:12.185Z,6.30
2019-05-26T13:55:41.818Z,9.53
2019-05-26T13:58:11.426Z,5.05
2019-05-26T14:00:41.066Z,8.08
2019-05-26T14:03:10.679Z,2.37
2019-05-26T14:05:40.299Z,4.10
2019-05-26T14:08:09.898Z,8.45
2019-05-26T14:10:39.830Z,2.85
2019-05-26T14:13:09.511Z,5.12
2019-05-26T14:15:40.179Z,4.10
2019-05-26T14:18:10.059Z,14.03
2019-05-26T14:20:40.873Z,5.25
2019-05-26T14:23:10.777Z,3.02
2019-05-26T14:25:40.522Z,5.75
2019-05-26T14:28:10.198Z,7.50
2019-05-26T14:30:40.870Z,2.40
2019-05-26T14:33:10.471Z,3.15
2019-05-26T14:35:40.198Z,3.08
2019-05-26T14:38:09.803Z,2.80
2019-05-26T14:40:40.438Z,4.75
2019-05-26T14:43:10.146Z,2.72
2019-05-26T14:45:52.436Z,4.85
2019-05-26T14:48:11.073Z,5.95
2019-05-26T14:50:41.236Z,14.23
2019-05-26T14:53:10.891Z,4.55
2019-05-26T14:55:40.459Z,5.97
2019-05-26T14:58:15.682Z,8.23
2019-05-26T15:00:41.479Z,12.00
2019-05-26T15:03:11.194Z,8.33
2019-05-26T15:05:40.809Z,8.55
2019-05-26T15:08:10.414Z,13.25
2019-05-26T15:10:40.018Z,13.48
2019-05-26T15:13:09.637Z,10.43
2019-05-26T15:15:39.250Z,6.53
2019-05-26T15:18:08.909Z,14.07
2019-05-26T15:20:38.576Z,7.80
2019-05-26T15:23:08.179Z,13.95
2019-05-26T15:25:37.796Z,10.47
2019-05-26T15:28:07.685Z,8.35
2019-05-26T15:30:37.376Z,6.70
2019-05-26T15:33:06.981Z,5.93
2019-05-26T15:35:36.602Z,8.63
2019-05-26T15:38:07.538Z,8.30
2019-05-26T15:40:37.138Z,6.30
2019-05-26T15:43:06.822Z,14.00
2019-05-26T15:45:37.486Z,9.93
2019-05-26T15:48:07.160Z,8.87
2019-05-26T15:50:36.996Z,12.23
2019-05-26T15:53:06.639Z,8.93
2019-05-26T15:55:39.714Z,15.20
2019-05-26T15:58:07.667Z,8.83
2019-05-26T16:00:56.619Z,5.28
2019-05-26T16:03:26.250Z,6.22
2019-05-26T16:05:55.970Z,5.40
2019-05-26T16:08:25.570Z,6.97
2019-05-26T16:10:55.255Z,8.93
2019-05-26T16:13:24.894Z,10.90
2019-05-26T16:15:54.484Z,4.97
2019-05-26T16:18:24.119Z,6.83
2019-05-26T16:21:02.614Z,11.80
2019-05-26T16:23:25.352Z,14.00
2019-05-26T16:25:54.976Z,9.33
2019-05-26T16:28:24.611Z,9.47
2019-05-26T16:30:54.270Z,7.90
2019-05-26T16:33:23.857Z,6.50
2019-05-26T16:35:55.497Z,11.33
2019-05-26T16:38:25.249Z,9.33
2019-05-26T16:40:54.867Z,9.70
2019-05-26T16:43:24.483Z,9.17
2019-05-26T16:45:56.413Z,8.70
2019-05-26T16:48:25.437Z,9.90
2019-05-26T16:50:55.084Z,6.23
2019-05-26T16:53:24.719Z,10.20
2019-05-26T16:55:54.333Z,9.33
2019-05-26T16:58:24.008Z,11.30
2019-05-26T17:00:53.710Z,15.40
2019-05-26T17:03:23.385Z,6.93
2019-05-26T17:06:07.147Z,11.73
2019-05-26T17:08:24.443Z,8.20
2019-05-26T17:10:54.031Z,11.13
2019-05-26T17:13:23.666Z,10.77
2019-05-26T17:15:54.071Z,11.80
2019-05-26T17:18:23.692Z,15.70
2019-05-26T17:20:53.310Z,8.50
2019-05-26T17:23:22.970Z,11.47
2019-05-26T17:25:52.572Z,9.13
2019-05-26T17:28:22.192Z,6.33
2019-05-26T17:30:51.813Z,14.47
2019-05-26T17:33:21.406Z,13.23
2019-05-26T17:35:51.023Z,16.00
2019-05-26T17:38:20.651Z,14.83
2019-05-26T17:40:50.287Z,10.27
2019-05-26T17:43:19.903Z,9.37
2019-05-26T17:45:49.498Z,10.33
2019-05-26T17:48:19.100Z,17.50
2019-05-26T17:50:48.810Z,15.23
2019-05-26T17:53:18.526Z,8.87
2019-05-26T17:55:48.146Z,9.80
2019-05-26T17:58:17.837Z,9.80
2019-05-26T18:00:47.439Z,16.57
2019-05-26T18:03:18.056Z,10.63
2019-05-26T18:05:47.672Z,8.77
2019-05-26T18:08:17.301Z,11.97
2019-05-26T18:10:47.058Z,9.07
2019-05-26T18:13:16.859Z,15.53
2019-05-26T18:15:46.541Z,17.50
2019-05-26T18:18:16.162Z,10.57
2019-05-26T18:20:45.819Z,12.50
2019-05-26T18:23:15.562Z,9.27
2019-05-26T18:25:45.165Z,11.37
2019-05-26T18:28:14.866Z,13.07
2019-05-26T18:30:44.551Z,10.07
2019-05-26T18:33:14.162Z,15.53
2019-05-26T18:35:43.816Z,16.97
2019-05-26T18:38:13.550Z,25.07
2019-05-26T18:40:43.438Z,20.93
2019-05-26T18:43:13.135Z,19.90
2019-05-26T18:45:42.742Z,23.83
2019-05-26T18:48:12.412Z,17.57
2019-05-26T18:50:42.037Z,26.37
2019-05-26T18:53:11.702Z,20.53
2019-05-26T18:55:41.315Z,17.20
2019-05-26T18:58:11.031Z,18.73
2019-05-26T19:00:40.742Z,18.30
2019-05-26T19:03:10.376Z,20.67
2019-05-26T19:05:40.960Z,17.73
2019-05-26T19:08:10.582Z,23.60
2019-05-26T19:10:40.234Z,23.87
2019-05-26T19:13:10.758Z,22.60
2019-05-26T19:15:40.578Z,24.97
2019-05-26T19:18:19.456Z,24.67
2019-05-26T19:20:41.686Z,31.83
2019-05-26T19:23:11.471Z,27.87
2019-05-26T19:25:42.120Z,28.70
2019-05-26T19:28:12.706Z,29.27
2019-05-26T19:30:45.527Z,25.07
2019-05-26T19:33:14.915Z,21.83
2019-05-26T19:35:44.571Z,25.70
2019-05-26T19:38:14.271Z,29.40
2019-05-26T19:40:43.902Z,32.50
2019-05-26T19:43:13.534Z,19.23
2019-05-26T19:45:43.147Z,20.80
2019-05-26T19:48:12.839Z,28.43
2019-05-26T19:50:42.489Z,13.20
2019-05-26T19:53:12.105Z,19.13
2019-05-26T19:55:41.749Z,17.53
2019-05-26T19:58:11.350Z,13.60
2019-05-26T20:00:41.209Z,14.90
2019-05-26T20:03:11.074Z,10.53
2019-05-26T20:05:40.742Z,12.53
2019-05-26T20:08:10.422Z,10.33
2019-05-26T20:10:40.044Z,9.23
2019-05-26T20:13:09.659Z,12.50
2019-05-26T20:15:39.433Z,10.23
2019-05-26T20:18:09.082Z,18.20
2019-05-26T20:20:38.718Z,13.83
2019-05-26T20:23:08.350Z,9.30
2019-05-26T20:25:37.959Z,14.83
2019-05-26T20:28:07.577Z,13.30
2019-05-26T20:30:37.189Z,12.00
2019-05-26T20:33:06.847Z,13.27
2019-05-26T20:35:36.472Z,15.70
2019-05-26T20:38:06.241Z,13.83
2019-05-26T20:40:36.080Z,14.47
2019-05-26T20:43:05.774Z,14.57
2019-05-26T20:45:35.487Z,19.30
2019-05-26T20:48:05.230Z,14.63
2019-05-26T20:50:35.837Z,16.73
2019-05-26T20:53:05.533Z,13.93
2019-05-26T20:55:35.121Z,10.10
2019-05-26T20:58:05.091Z,13.03
2019-05-26T21:00:34.783Z,19.43
2019-05-26T21:03:04.683Z,12.87
2019-05-26T21:05:34.378Z,9.70
2019-05-26T21:08:04.188Z,11.07
2019-05-26T21:10:33.787Z,15.70
2019-05-26T21:13:03.423Z,9.53
2019-05-26T21:15:33.019Z,17.50
2019-05-26T21:18:02.631Z,17.43
2019-05-26T21:20:32.241Z,23.00
2019-05-26T21:23:01.882Z,20.37
2019-05-26T21:25:31.609Z,22.47
2019-05-26T21:28:01.284Z,22.97
2019-05-26T21:30:30.887Z,23.13
2019-05-26T21:33:00.510Z,24.67
2019-05-26T21:35:30.130Z,29.87
2019-05-26T21:37:59.745Z,26.73
2019-05-26T21:40:29.470Z,29.47
2019-05-26T21:42:59.156Z,22.20
2019-05-26T21:45:28.751Z,24.27
2019-05-26T21:47:58.363Z,24.00
2019-05-26T21:50:27.977Z,22.00
2019-05-26T21:52:57.582Z,23.90
2019-05-26T21:55:27.314Z,24.97
2019-05-26T21:57:56.930Z,23.90
2019-05-26T22:00:30.931Z,27.50
2019-05-26T22:03:02.140Z,33.63
2019-05-26T22:05:31.741Z,31.43
2019-05-26T22:08:01.355Z,35.77
2019-05-26T22:10:30.998Z,31.00
2019-05-26T22:13:00.619Z,28.53
2019-05-26T22:15:30.306Z,27.23
2019-05-26T22:17:59.981Z,22.67
2019-05-26T22:20:29.610Z,26.87
2019-05-26T22:22:59.218Z,32.97
2019-05-26T22:25:28.830Z,39.80
2019-05-26T22:27:58.438Z,31.00
2019-05-26T22:30:28.055Z,23.60
2019-05-26T22:32:57.663Z,26.40
2019-05-26T22:35:27.356Z,27.80
2019-05-26T22:37:56.991Z,31.70
2019-05-26T22:40:26.734Z,29.00
2019-05-26T22:42:56.398Z,26.10
2019-05-26T22:45:26.010Z,24.53
2019-05-26T22:47:55.764Z,26.03
2019-05-26T22:50:25.413Z,33.40
2019-05-26T22:52:55.042Z,24.57
2019-05-26T22:55:24.650Z,29.43
2019-05-26T22:57:54.270Z,24.13
2019-05-26T23:00:25.395Z,26.90
2019-05-26T23:02:55.034Z,28.63
2019-05-26T23:05:24.639Z,25.07
2019-05-26T23:07:54.263Z,26.43
2019-05-26T23:10:23.875Z,37.30
2019-05-26T23:12:53.506Z,29.47
2019-05-26T23:15:23.208Z,28.20
2019-05-26T23:17:52.882Z,30.07
2019-05-26T23:20:23.485Z,35.70
2019-05-26T23:22:53.074Z,30.47
2019-05-26T23:25:22.682Z,21.77
2019-05-26T23:27:52.289Z,23.73
2019-05-26T23:30:22.174Z,15.30
2019-05-26T23:32:51.998Z,15.37
2019-05-26T23:35:22.199Z,13.10
2019-05-26T23:37:51.790Z,20.27
2019-05-26T23:40:21.425Z,22.97
2019-05-26T23:42:51.022Z,15.23
2019-05-26T23:45:21.008Z,17.10
2019-05-26T23:47:50.799Z,12.40
2019-05-26T23:50:20.804Z,20.03
2019-05-26T23:52:50.614Z,15.37
2019-05-26T23:55:20.334Z,12.90
2019-05-26T23:57:50.070Z,13.73
